sensor_id;sensor_type;location;lat;lon;timestamp;P1;durP1;ratioP1;P2;durP2;ratioP2
20729;SDS011;10526;50.850;12.928;2022-12-11T00:03:19;44.53;;;22.40;;
20729;SDS011;10526;50.850;12.928;2022-12-11T00:07:41;47.83;;;22.92;;
20729;SDS011;10526;50.850;12.928;2022-12-11T00:12:03;45.00;;;22.05;;
20729;SDS011;10526;50.850;12.928;2022-12-11T00:16:27;44.40;;;23.30;;
20729;SDS011;10526;50.850;12.928;2022-12-11T00:20:49;43.60;;;22.85;;
20729;SDS011;10526;50.850;12.928;2022-12-11T00:25:11;46.33;;;24.83;;
20729;SDS011;10526;50.850;12.928;2022-12-11T00:29:33;49.22;;;25.45;;
20729;SDS011;10526;50.850;12.928;2022-12-11T00:33:55;44.40;;;24.10;;
20729;SDS011;10526;50.850;12.928;2022-12-11T00:38:19;50.33;;;26.42;;
20729;SDS011;10526;50.850;12.928;2022-12-11T00:42:42;46.33;;;25.40;;
20729;SDS011;10526;50.850;12.928;2022-12-11T00:47:03;46.72;;;23.88;;
20729;SDS011;10526;50.850;12.928;2022-12-11T00:51:25;44.08;;;23.55;;
20729;SDS011;10526;50.850;12.928;2022-12-11T00:55:48;46.15;;;23.98;;
20729;SDS011;10526;50.850;12.928;2022-12-11T01:00:11;48.08;;;25.20;;
20729;SDS011;10526;50.850;12.928;2022-12-11T01:04:36;45.15;;;22.88;;
20729;SDS011;10526;50.850;12.928;2022-12-11T01:08:58;51.20;;;27.13;;
20729;SDS011;10526;50.850;12.928;2022-12-11T01:13:40;49.95;;;25.08;;
20729;SDS011;10526;50.850;12.928;2022-12-11T01:18:03;44.20;;;23.55;;
20729;SDS011;10526;50.850;12.928;2022-12-11T01:22:25;48.15;;;25.38;;
20729;SDS011;10526;50.850;12.928;2022-12-11T01:26:47;44.40;;;22.80;;
20729;SDS011;10526;50.850;12.928;2022-12-11T01:31:17;44.05;;;22.98;;
20729;SDS011;10526;50.850;12.928;2022-12-11T01:35:40;47.40;;;24.73;;
20729;SDS011;10526;50.850;12.928;2022-12-11T01:40:03;42.42;;;23.50;;
20729;SDS011;10526;50.850;12.928;2022-12-11T01:48:51;50.53;;;27.05;;
20729;SDS011;10526;50.850;12.928;2022-12-11T01:53:15;46.00;;;23.58;;
20729;SDS011;10526;50.850;12.928;2022-12-11T01:57:47;47.78;;;25.95;;
20729;SDS011;10526;50.850;12.928;2022-12-11T02:02:14;48.95;;;24.67;;
20729;SDS011;10526;50.850;12.928;2022-12-11T02:06:45;47.08;;;24.75;;
20729;SDS011;10526;50.850;12.928;2022-12-11T02:11:14;45.95;;;24.75;;
20729;SDS011;10526;50.850;12.928;2022-12-11T02:20:16;44.53;;;23.75;;
20729;SDS011;10526;50.850;12.928;2022-12-11T02:29:57;52.30;;;25.67;;
20729;SDS011;10526;50.850;12.928;2022-12-11T02:34:41;48.13;;;25.23;;
20729;SDS011;10526;50.850;12.928;2022-12-11T02:39:25;52.83;;;27.13;;
20729;SDS011;10526;50.850;12.928;2022-12-11T02:43:49;48.50;;;25.35;;
20729;SDS011;10526;50.850;12.928;2022-12-11T02:48:11;46.63;;;25.30;;
20729;SDS011;10526;50.850;12.928;2022-12-11T02:52:35;49.75;;;26.95;;
20729;SDS011;10526;50.850;12.928;2022-12-11T02:57:00;50.55;;;26.42;;
20729;SDS011;10526;50.850;12.928;2022-12-11T03:01:28;54.85;;;28.17;;
20729;SDS011;10526;50.850;12.928;2022-12-11T03:05:50;51.95;;;27.17;;
20729;SDS011;10526;50.850;12.928;2022-12-11T03:10:13;49.70;;;26.73;;
20729;SDS011;10526;50.850;12.928;2022-12-11T03:14:38;49.25;;;25.27;;
20729;SDS011;10526;50.850;12.928;2022-12-11T03:24:04;47.90;;;25.75;;
20729;SDS011;10526;50.850;12.928;2022-12-11T03:28:59;50.33;;;25.95;;
20729;SDS011;10526;50.850;12.928;2022-12-11T03:33:26;49.30;;;26.33;;
20729;SDS011;10526;50.850;12.928;2022-12-11T03:37:54;50.38;;;26.48;;
20729;SDS011;10526;50.850;12.928;2022-12-11T03:42:20;47.53;;;26.08;;
20729;SDS011;10526;50.850;12.928;2022-12-11T03:46:44;51.10;;;25.35;;
20729;SDS011;10526;50.850;12.928;2022-12-11T03:51:07;48.75;;;25.60;;
20729;SDS011;10526;50.850;12.928;2022-12-11T03:55:30;48.38;;;25.08;;
20729;SDS011;10526;50.850;12.928;2022-12-11T03:59:57;48.90;;;24.95;;
20729;SDS011;10526;50.850;12.928;2022-12-11T04:04:19;52.03;;;25.95;;
20729;SDS011;10526;50.850;12.928;2022-12-11T04:08:41;51.75;;;26.55;;
20729;SDS011;10526;50.850;12.928;2022-12-11T04:13:03;46.90;;;25.02;;
20729;SDS011;10526;50.850;12.928;2022-12-11T04:17:25;51.13;;;26.35;;
20729;SDS011;10526;50.850;12.928;2022-12-11T04:22:06;51.53;;;25.80;;
20729;SDS011;10526;50.850;12.928;2022-12-11T04:26:48;54.10;;;27.25;;
20729;SDS011;10526;50.850;12.928;2022-12-11T04:31:11;51.72;;;26.15;;
20729;SDS011;10526;50.850;12.928;2022-12-11T04:35:39;63.50;;;29.65;;
20729;SDS011;10526;50.850;12.928;2022-12-11T04:40:01;53.63;;;27.17;;
20729;SDS011;10526;50.850;12.928;2022-12-11T04:44:26;51.60;;;26.58;;
20729;SDS011;10526;50.850;12.928;2022-12-11T04:48:48;51.25;;;24.67;;
20729;SDS011;10526;50.850;12.928;2022-12-11T04:53:17;54.78;;;25.45;;
20729;SDS011;10526;50.850;12.928;2022-12-11T04:57:39;52.67;;;24.52;;
20729;SDS011;10526;50.850;12.928;2022-12-11T05:02:02;51.78;;;23.48;;
20729;SDS011;10526;50.850;12.928;2022-12-11T05:06:24;49.15;;;23.85;;
20729;SDS011;10526;50.850;12.928;2022-12-11T05:10:56;45.05;;;21.58;;
20729;SDS011;10526;50.850;12.928;2022-12-11T05:15:20;45.65;;;22.83;;
20729;SDS011;10526;50.850;12.928;2022-12-11T05:19:43;48.95;;;21.83;;
20729;SDS011;10526;50.850;12.928;2022-12-11T05:24:09;52.03;;;22.80;;
20729;SDS011;10526;50.850;12.928;2022-12-11T05:28:33;58.22;;;24.50;;
20729;SDS011;10526;50.850;12.928;2022-12-11T05:32:57;43.95;;;20.05;;
20729;SDS011;10526;50.850;12.928;2022-12-11T05:37:19;45.10;;;20.88;;
20729;SDS011;10526;50.850;12.928;2022-12-11T05:41:41;43.53;;;20.42;;
20729;SDS011;10526;50.850;12.928;2022-12-11T05:46:07;39.67;;;18.63;;
20729;SDS011;10526;50.850;12.928;2022-12-11T05:50:37;38.90;;;18.23;;
20729;SDS011;10526;50.850;12.928;2022-12-11T05:55:00;39.78;;;19.00;;
20729;SDS011;10526;50.850;12.928;2022-12-11T05:59:22;34.60;;;16.63;;
20729;SDS011;10526;50.850;12.928;2022-12-11T06:03:44;34.30;;;17.10;;
20729;SDS011;10526;50.850;12.928;2022-12-11T06:08:06;30.15;;;16.27;;
20729;SDS011;10526;50.850;12.928;2022-12-11T06:12:28;36.60;;;15.75;;
20729;SDS011;10526;50.850;12.928;2022-12-11T06:16:51;26.15;;;13.63;;
20729;SDS011;10526;50.850;12.928;2022-12-11T06:21:20;27.27;;;13.85;;
20729;SDS011;10526;50.850;12.928;2022-12-11T06:25:45;28.92;;;14.20;;
20729;SDS011;10526;50.850;12.928;2022-12-11T06:30:07;30.33;;;15.35;;
20729;SDS011;10526;50.850;12.928;2022-12-11T06:34:30;29.60;;;15.82;;
20729;SDS011;10526;50.850;12.928;2022-12-11T06:38:52;26.67;;;13.73;;
20729;SDS011;10526;50.850;12.928;2022-12-11T06:43:15;28.38;;;14.23;;
20729;SDS011;10526;50.850;12.928;2022-12-11T06:47:37;27.58;;;15.07;;
20729;SDS011;10526;50.850;12.928;2022-12-11T06:51:59;30.67;;;15.35;;
20729;SDS011;10526;50.850;12.928;2022-12-11T06:56:22;31.08;;;14.80;;
20729;SDS011;10526;50.850;12.928;2022-12-11T07:00:44;29.02;;;14.68;;
20729;SDS011;10526;50.850;12.928;2022-12-11T07:05:06;28.38;;;16.02;;
20729;SDS011;10526;50.850;12.928;2022-12-11T07:09:29;30.02;;;15.90;;
20729;SDS011;10526;50.850;12.928;2022-12-11T07:13:51;33.30;;;16.48;;
20729;SDS011;10526;50.850;12.928;2022-12-11T07:18:13;31.60;;;15.95;;
20729;SDS011;10526;50.850;12.928;2022-12-11T07:22:36;30.38;;;15.48;;
20729;SDS011;10526;50.850;12.928;2022-12-11T07:27:06;31.33;;;15.98;;
20729;SDS011;10526;50.850;12.928;2022-12-11T07:31:28;30.20;;;16.02;;
20729;SDS011;10526;50.850;12.928;2022-12-11T07:35:51;32.53;;;16.55;;
20729;SDS011;10526;50.850;12.928;2022-12-11T07:40:13;30.48;;;15.93;;
20729;SDS011;10526;50.850;12.928;2022-12-11T07:44:35;29.00;;;15.40;;
20729;SDS011;10526;50.850;12.928;2022-12-11T07:48:57;31.75;;;15.77;;
20729;SDS011;10526;50.850;12.928;2022-12-11T07:53:21;31.15;;;16.17;;
20729;SDS011;10526;50.850;12.928;2022-12-11T07:57:42;28.85;;;15.35;;
20729;SDS011;10526;50.850;12.928;2022-12-11T08:02:05;28.85;;;15.88;;
20729;SDS011;10526;50.850;12.928;2022-12-11T08:06:28;27.83;;;14.38;;
20729;SDS011;10526;50.850;12.928;2022-12-11T08:10:53;31.30;;;16.15;;
20729;SDS011;10526;50.850;12.928;2022-12-11T08:15:15;33.13;;;16.00;;
20729;SDS011;10526;50.850;12.928;2022-12-11T08:19:37;27.77;;;14.95;;
20729;SDS011;10526;50.850;12.928;2022-12-11T08:23:58;31.52;;;14.63;;
20729;SDS011;10526;50.850;12.928;2022-12-11T08:28:20;28.05;;;14.80;;
20729;SDS011;10526;50.850;12.928;2022-12-11T08:32:42;28.60;;;15.52;;
20729;SDS011;10526;50.850;12.928;2022-12-11T08:37:04;29.15;;;15.07;;
20729;SDS011;10526;50.850;12.928;2022-12-11T08:41:27;26.85;;;14.40;;
20729;SDS011;10526;50.850;12.928;2022-12-11T08:45:50;27.60;;;15.05;;
20729;SDS011;10526;50.850;12.928;2022-12-11T08:50:12;30.08;;;15.73;;
20729;SDS011;10526;50.850;12.928;2022-12-11T08:54:38;29.65;;;15.07;;
20729;SDS011;10526;50.850;12.928;2022-12-11T08:58:59;29.25;;;14.90;;
20729;SDS011;10526;50.850;12.928;2022-12-11T09:03:22;27.20;;;15.15;;
20729;SDS011;10526;50.850;12.928;2022-12-11T09:07:44;29.98;;;16.75;;
20729;SDS011;10526;50.850;12.928;2022-12-11T09:12:06;32.53;;;16.23;;
20729;SDS011;10526;50.850;12.928;2022-12-11T09:16:28;27.75;;;14.95;;
20729;SDS011;10526;50.850;12.928;2022-12-11T09:21:04;26.42;;;15.60;;
20729;SDS011;10526;50.850;12.928;2022-12-11T09:25:29;26.58;;;14.73;;
20729;SDS011;10526;50.850;12.928;2022-12-11T09:29:50;24.27;;;13.07;;
20729;SDS011;10526;50.850;12.928;2022-12-11T09:34:12;25.15;;;14.13;;
20729;SDS011;10526;50.850;12.928;2022-12-11T09:38:34;25.05;;;14.18;;
20729;SDS011;10526;50.850;12.928;2022-12-11T09:47:33;26.42;;;13.27;;
20729;SDS011;10526;50.850;12.928;2022-12-11T09:52:11;27.23;;;14.82;;
20729;SDS011;10526;50.850;12.928;2022-12-11T09:56:48;25.52;;;14.57;;
20729;SDS011;10526;50.850;12.928;2022-12-11T10:16:44;24.83;;;13.40;;
20729;SDS011;10526;50.850;12.928;2022-12-11T10:21:16;27.25;;;13.45;;
20729;SDS011;10526;50.850;12.928;2022-12-11T10:25:40;20.70;;;11.50;;
20729;SDS011;10526;50.850;12.928;2022-12-11T10:34:39;20.25;;;11.90;;
20729;SDS011;10526;50.850;12.928;2022-12-11T10:39:11;23.85;;;12.60;;
20729;SDS011;10526;50.850;12.928;2022-12-11T10:43:41;22.60;;;12.50;;
20729;SDS011;10526;50.850;12.928;2022-12-11T10:48:09;21.40;;;11.32;;
20729;SDS011;10526;50.850;12.928;2022-12-11T10:57:05;22.77;;;13.50;;
20729;SDS011;10526;50.850;12.928;2022-12-11T11:01:30;26.52;;;14.43;;
20729;SDS011;10526;50.850;12.928;2022-12-11T11:10:37;25.45;;;12.48;;
20729;SDS011;10526;50.850;12.928;2022-12-11T11:15:14;26.60;;;13.45;;
20729;SDS011;10526;50.850;12.928;2022-12-11T11:19:49;22.67;;;12.52;;
20729;SDS011;10526;50.850;12.928;2022-12-11T11:24:18;22.27;;;11.90;;
20729;SDS011;10526;50.850;12.928;2022-12-11T11:29:04;23.55;;;13.40;;
20729;SDS011;10526;50.850;12.928;2022-12-11T11:33:27;26.73;;;14.40;;
20729;SDS011;10526;50.850;12.928;2022-12-11T11:37:58;25.80;;;14.65;;
20729;SDS011;10526;50.850;12.928;2022-12-11T11:42:42;25.17;;;13.73;;
20729;SDS011;10526;50.850;12.928;2022-12-11T11:47:29;23.52;;;12.95;;
20729;SDS011;10526;50.850;12.928;2022-12-11T11:52:04;24.40;;;13.52;;
20729;SDS011;10526;50.850;12.928;2022-12-11T11:56:40;25.73;;;13.65;;
20729;SDS011;10526;50.850;12.928;2022-12-11T12:01:14;26.48;;;14.85;;
20729;SDS011;10526;50.850;12.928;2022-12-11T12:10:22;26.10;;;14.50;;
20729;SDS011;10526;50.850;12.928;2022-12-11T12:15:17;23.27;;;13.50;;
20729;SDS011;10526;50.850;12.928;2022-12-11T12:24:45;27.70;;;14.27;;
20729;SDS011;10526;50.850;12.928;2022-12-11T12:29:23;25.65;;;14.70;;
20729;SDS011;10526;50.850;12.928;2022-12-11T12:44:17;27.70;;;15.85;;
20729;SDS011;10526;50.850;12.928;2022-12-11T12:48:43;30.77;;;15.82;;
20729;SDS011;10526;50.850;12.928;2022-12-11T12:53:06;32.47;;;17.48;;
20729;SDS011;10526;50.850;12.928;2022-12-11T12:57:34;28.40;;;15.45;;
20729;SDS011;10526;50.850;12.928;2022-12-11T13:01:59;29.83;;;16.20;;
20729;SDS011;10526;50.850;12.928;2022-12-11T13:06:34;30.77;;;17.33;;
20729;SDS011;10526;50.850;12.928;2022-12-11T13:11:04;26.77;;;15.70;;
20729;SDS011;10526;50.850;12.928;2022-12-11T13:15:34;29.83;;;16.75;;
20729;SDS011;10526;50.850;12.928;2022-12-11T13:29:35;29.00;;;16.52;;
20729;SDS011;10526;50.850;12.928;2022-12-11T13:34:05;28.58;;;14.90;;
20729;SDS011;10526;50.850;12.928;2022-12-11T13:38:36;32.28;;;18.08;;
20729;SDS011;10526;50.850;12.928;2022-12-11T13:43:15;31.90;;;18.25;;
20729;SDS011;10526;50.850;12.928;2022-12-11T13:47:42;34.67;;;18.67;;
20729;SDS011;10526;50.850;12.928;2022-12-11T13:52:05;32.08;;;18.42;;
20729;SDS011;10526;50.850;12.928;2022-12-11T13:56:27;32.50;;;17.25;;
20729;SDS011;10526;50.850;12.928;2022-12-11T14:05:34;32.05;;;16.48;;
20729;SDS011;10526;50.850;12.928;2022-12-11T14:10:01;32.72;;;16.08;;
20729;SDS011;10526;50.850;12.928;2022-12-11T14:14:38;29.83;;;16.92;;
20729;SDS011;10526;50.850;12.928;2022-12-11T14:19:04;29.75;;;16.50;;
20729;SDS011;10526;50.850;12.928;2022-12-11T14:23:31;32.72;;;16.38;;
20729;SDS011;10526;50.850;12.928;2022-12-11T14:27:55;31.23;;;16.58;;
20729;SDS011;10526;50.850;12.928;2022-12-11T14:32:24;30.77;;;16.35;;
20729;SDS011;10526;50.850;12.928;2022-12-11T14:36:57;38.20;;;18.88;;
20729;SDS011;10526;50.850;12.928;2022-12-11T14:41:26;34.20;;;17.75;;
20729;SDS011;10526;50.850;12.928;2022-12-11T14:51:16;33.05;;;18.15;;
20729;SDS011;10526;50.850;12.928;2022-12-11T14:55:39;32.22;;;17.58;;
20729;SDS011;10526;50.850;12.928;2022-12-11T15:00:03;31.50;;;17.63;;
20729;SDS011;10526;50.850;12.928;2022-12-11T15:05:10;35.10;;;18.58;;
20729;SDS011;10526;50.850;12.928;2022-12-11T15:09:38;33.20;;;16.95;;
20729;SDS011;10526;50.850;12.928;2022-12-11T15:14:03;35.00;;;17.65;;
20729;SDS011;10526;50.850;12.928;2022-12-11T15:18:30;32.47;;;16.98;;
20729;SDS011;10526;50.850;12.928;2022-12-11T15:22:56;33.47;;;18.00;;
20729;SDS011;10526;50.850;12.928;2022-12-11T15:27:37;33.28;;;17.77;;
20729;SDS011;10526;50.850;12.928;2022-12-11T15:36:39;33.30;;;17.63;;
20729;SDS011;10526;50.850;12.928;2022-12-11T15:41:01;35.13;;;17.85;;
20729;SDS011;10526;50.850;12.928;2022-12-11T15:45:25;34.08;;;18.13;;
20729;SDS011;10526;50.850;12.928;2022-12-11T15:49:49;31.48;;;17.33;;
20729;SDS011;10526;50.850;12.928;2022-12-11T15:54:16;34.38;;;16.77;;
20729;SDS011;10526;50.850;12.928;2022-12-11T15:58:38;31.73;;;16.65;;
20729;SDS011;10526;50.850;12.928;2022-12-11T16:03:00;33.20;;;16.98;;
20729;SDS011;10526;50.850;12.928;2022-12-11T16:07:22;33.15;;;18.02;;
20729;SDS011;10526;50.850;12.928;2022-12-11T16:11:45;34.80;;;18.40;;
20729;SDS011;10526;50.850;12.928;2022-12-11T16:16:08;34.65;;;18.48;;
20729;SDS011;10526;50.850;12.928;2022-12-11T16:20:31;34.38;;;18.90;;
20729;SDS011;10526;50.850;12.928;2022-12-11T16:24:54;36.08;;;19.45;;
20729;SDS011;10526;50.850;12.928;2022-12-11T16:29:16;36.00;;;18.13;;
20729;SDS011;10526;50.850;12.928;2022-12-11T16:33:38;34.83;;;18.65;;
20729;SDS011;10526;50.850;12.928;2022-12-11T16:38:03;35.70;;;18.15;;
20729;SDS011;10526;50.850;12.928;2022-12-11T16:42:29;36.83;;;19.02;;
20729;SDS011;10526;50.850;12.928;2022-12-11T16:46:51;37.08;;;19.10;;
20729;SDS011;10526;50.850;12.928;2022-12-11T16:51:14;39.75;;;19.50;;
20729;SDS011;10526;50.850;12.928;2022-12-11T16:55:38;38.25;;;19.27;;
20729;SDS011;10526;50.850;12.928;2022-12-11T17:00:00;34.97;;;17.77;;
20729;SDS011;10526;50.850;12.928;2022-12-11T17:04:23;33.35;;;18.60;;
20729;SDS011;10526;50.850;12.928;2022-12-11T17:08:45;33.72;;;18.05;;
20729;SDS011;10526;50.850;12.928;2022-12-11T17:13:07;36.40;;;18.27;;
20729;SDS011;10526;50.850;12.928;2022-12-11T17:17:30;34.88;;;18.75;;
20729;SDS011;10526;50.850;12.928;2022-12-11T17:21:52;35.92;;;19.30;;
20729;SDS011;10526;50.850;12.928;2022-12-11T17:26:16;39.15;;;20.08;;
20729;SDS011;10526;50.850;12.928;2022-12-11T17:30:39;33.85;;;19.73;;
20729;SDS011;10526;50.850;12.928;2022-12-11T17:35:02;35.35;;;18.63;;
20729;SDS011;10526;50.850;12.928;2022-12-11T17:39:24;35.30;;;18.30;;
20729;SDS011;10526;50.850;12.928;2022-12-11T17:43:47;36.53;;;19.38;;
20729;SDS011;10526;50.850;12.928;2022-12-11T17:48:11;38.70;;;19.55;;
20729;SDS011;10526;50.850;12.928;2022-12-11T17:52:33;39.78;;;19.88;;
20729;SDS011;10526;50.850;12.928;2022-12-11T17:57:04;39.60;;;20.55;;
20729;SDS011;10526;50.850;12.928;2022-12-11T18:01:27;37.60;;;19.98;;
20729;SDS011;10526;50.850;12.928;2022-12-11T18:05:50;41.58;;;21.58;;
20729;SDS011;10526;50.850;12.928;2022-12-11T18:10:14;50.45;;;24.77;;
20729;SDS011;10526;50.850;12.928;2022-12-11T18:14:36;53.35;;;26.92;;
20729;SDS011;10526;50.850;12.928;2022-12-11T18:19:01;42.83;;;21.20;;
20729;SDS011;10526;50.850;12.928;2022-12-11T18:23:25;83.63;;;46.55;;
20729;SDS011;10526;50.850;12.928;2022-12-11T18:27:48;43.15;;;23.13;;
20729;SDS011;10526;50.850;12.928;2022-12-11T18:32:10;53.95;;;27.10;;
20729;SDS011;10526;50.850;12.928;2022-12-11T18:36:32;44.35;;;24.10;;
20729;SDS011;10526;50.850;12.928;2022-12-11T18:40:54;41.13;;;22.83;;
20729;SDS011;10526;50.850;12.928;2022-12-11T18:45:16;41.97;;;20.75;;
20729;SDS011;10526;50.850;12.928;2022-12-11T18:49:38;45.50;;;23.58;;
20729;SDS011;10526;50.850;12.928;2022-12-11T18:54:00;39.20;;;21.38;;
20729;SDS011;10526;50.850;12.928;2022-12-11T18:58:22;49.55;;;24.27;;
20729;SDS011;10526;50.850;12.928;2022-12-11T19:02:44;45.22;;;23.73;;
20729;SDS011;10526;50.850;12.928;2022-12-11T19:07:09;42.33;;;21.55;;
20729;SDS011;10526;50.850;12.928;2022-12-11T19:11:32;48.08;;;24.30;;
20729;SDS011;10526;50.850;12.928;2022-12-11T19:15:55;49.63;;;24.85;;
20729;SDS011;10526;50.850;12.928;2022-12-11T19:20:17;48.38;;;24.90;;
20729;SDS011;10526;50.850;12.928;2022-12-11T19:24:59;48.15;;;24.90;;
20729;SDS011;10526;50.850;12.928;2022-12-11T19:29:25;52.88;;;25.20;;
20729;SDS011;10526;50.850;12.928;2022-12-11T19:33:49;46.45;;;23.13;;
20729;SDS011;10526;50.850;12.928;2022-12-11T19:38:12;47.45;;;24.95;;
20729;SDS011;10526;50.850;12.928;2022-12-11T19:42:34;49.97;;;25.55;;
20729;SDS011;10526;50.850;12.928;2022-12-11T19:46:56;48.38;;;24.35;;
20729;SDS011;10526;50.850;12.928;2022-12-11T19:51:19;50.47;;;25.45;;
20729;SDS011;10526;50.850;12.928;2022-12-11T19:55:51;53.53;;;26.40;;
20729;SDS011;10526;50.850;12.928;2022-12-11T20:00:14;46.53;;;23.40;;
20729;SDS011;10526;50.850;12.928;2022-12-11T20:04:36;50.28;;;25.17;;
20729;SDS011;10526;50.850;12.928;2022-12-11T20:09:00;49.58;;;25.48;;
20729;SDS011;10526;50.850;12.928;2022-12-11T20:13:23;47.97;;;25.45;;
20729;SDS011;10526;50.850;12.928;2022-12-11T20:17:45;44.30;;;22.63;;
20729;SDS011;10526;50.850;12.928;2022-12-11T20:22:07;46.60;;;23.02;;
20729;SDS011;10526;50.850;12.928;2022-12-11T20:26:30;46.72;;;24.30;;
20729;SDS011;10526;50.850;12.928;2022-12-11T20:31:01;47.13;;;24.45;;
20729;SDS011;10526;50.850;12.928;2022-12-11T20:35:29;48.40;;;22.58;;
20729;SDS011;10526;50.850;12.928;2022-12-11T20:39:51;49.75;;;24.77;;
20729;SDS011;10526;50.850;12.928;2022-12-11T20:44:13;50.17;;;25.60;;
20729;SDS011;10526;50.850;12.928;2022-12-11T20:48:35;47.38;;;24.70;;
20729;SDS011;10526;50.850;12.928;2022-12-11T20:52:58;51.97;;;25.50;;
20729;SDS011;10526;50.850;12.928;2022-12-11T20:57:20;45.60;;;23.20;;
20729;SDS011;10526;50.850;12.928;2022-12-11T21:01:42;50.42;;;25.73;;
20729;SDS011;10526;50.850;12.928;2022-12-11T21:06:05;49.42;;;24.88;;
20729;SDS011;10526;50.850;12.928;2022-12-11T21:10:27;50.97;;;24.35;;
20729;SDS011;10526;50.850;12.928;2022-12-11T21:14:49;50.88;;;23.75;;
20729;SDS011;10526;50.850;12.928;2022-12-11T21:19:12;48.28;;;23.05;;
20729;SDS011;10526;50.850;12.928;2022-12-11T21:23:37;49.20;;;24.30;;
20729;SDS011;10526;50.850;12.928;2022-12-11T21:28:00;43.10;;;22.58;;
20729;SDS011;10526;50.850;12.928;2022-12-11T21:32:22;46.72;;;23.33;;
20729;SDS011;10526;50.850;12.928;2022-12-11T21:36:44;50.35;;;24.88;;
20729;SDS011;10526;50.850;12.928;2022-12-11T21:45:35;56.92;;;26.25;;
20729;SDS011;10526;50.850;12.928;2022-12-11T21:50:17;50.38;;;25.73;;
20729;SDS011;10526;50.850;12.928;2022-12-11T21:54:39;51.90;;;24.25;;
20729;SDS011;10526;50.850;12.928;2022-12-11T21:59:02;58.33;;;26.58;;
20729;SDS011;10526;50.850;12.928;2022-12-11T22:03:25;55.33;;;26.30;;
20729;SDS011;10526;50.850;12.928;2022-12-11T22:07:47;56.63;;;26.45;;
20729;SDS011;10526;50.850;12.928;2022-12-11T22:12:12;55.42;;;26.30;;
20729;SDS011;10526;50.850;12.928;2022-12-11T22:16:43;56.60;;;28.38;;
20729;SDS011;10526;50.850;12.928;2022-12-11T22:21:05;56.65;;;28.63;;
20729;SDS011;10526;50.850;12.928;2022-12-11T22:25:28;57.00;;;27.70;;
20729;SDS011;10526;50.850;12.928;2022-12-11T22:29:50;60.35;;;28.65;;
20729;SDS011;10526;50.850;12.928;2022-12-11T22:34:12;58.90;;;29.50;;
20729;SDS011;10526;50.850;12.928;2022-12-11T22:38:34;58.72;;;28.58;;
20729;SDS011;10526;50.850;12.928;2022-12-11T22:42:56;54.55;;;27.02;;
20729;SDS011;10526;50.850;12.928;2022-12-11T22:47:18;58.55;;;27.58;;
20729;SDS011;10526;50.850;12.928;2022-12-11T22:51:40;61.83;;;27.90;;
20729;SDS011;10526;50.850;12.928;2022-12-11T22:56:03;60.00;;;29.08;;
20729;SDS011;10526;50.850;12.928;2022-12-11T23:00:27;55.20;;;26.73;;
20729;SDS011;10526;50.850;12.928;2022-12-11T23:04:48;57.00;;;26.80;;
20729;SDS011;10526;50.850;12.928;2022-12-11T23:09:10;55.35;;;26.83;;
20729;SDS011;10526;50.850;12.928;2022-12-11T23:13:32;56.85;;;27.02;;
20729;SDS011;10526;50.850;12.928;2022-12-11T23:17:55;57.42;;;27.05;;
20729;SDS011;10526;50.850;12.928;2022-12-11T23:22:18;57.33;;;27.17;;
20729;SDS011;10526;50.850;12.928;2022-12-11T23:26:40;58.40;;;28.38;;
20729;SDS011;10526;50.850;12.928;2022-12-11T23:31:02;55.83;;;27.10;;
20729;SDS011;10526;50.850;12.928;2022-12-11T23:35:25;59.13;;;28.10;;
20729;SDS011;10526;50.850;12.928;2022-12-11T23:39:47;52.83;;;26.38;;
20729;SDS011;10526;50.850;12.928;2022-12-11T23:44:09;56.95;;;26.50;;
20729;SDS011;10526;50.850;12.928;2022-12-11T23:48:31;53.97;;;26.33;;
20729;SDS011;10526;50.850;12.928;2022-12-11T23:52:53;56.35;;;25.52;;
20729;SDS011;10526;50.850;12.928;2022-12-11T23:57:15;56.55;;;27.83;;
